createdAt,value
2022-07-30T00:04:02.474Z,101464.81
2022-07-30T00:09:17.752Z,101464.81
2022-07-30T00:14:32.732Z,101469.69
2022-07-30T00:19:47.671Z,101467.41
2022-07-30T00:25:02.674Z,101461.81
2022-07-30T00:30:17.759Z,101453.91
2022-07-30T00:35:32.726Z,101453.91
2022-07-30T00:40:48.002Z,101458.81
2022-07-30T00:46:04.100Z,101462.34
2022-07-30T00:51:19.679Z,101452.44
2022-07-30T00:56:34.745Z,101456.00
2022-07-30T01:01:49.982Z,101448.13
2022-07-30T01:07:05.691Z,101443.25
2022-07-30T01:12:20.745Z,101445.31
2022-07-30T01:17:35.964Z,101440.97
2022-07-30T01:22:51.740Z,101441.53
2022-07-30T01:28:06.693Z,101442.31
2022-07-30T01:33:21.765Z,101437.22
2022-07-30T01:38:36.996Z,101444.13
2022-07-30T01:43:54.025Z,101437.03
2022-07-30T01:49:11.707Z,101430.66
2022-07-30T01:54:26.688Z,101432.16
2022-07-30T01:59:41.733Z,101425.03
2022-07-30T02:04:56.683Z,101437.03
2022-07-30T02:10:11.732Z,101446.19
2022-07-30T02:15:29.032Z,101450.31
2022-07-30T02:20:45.028Z,101444.69
2022-07-30T02:26:05.027Z,101442.41
2022-07-30T02:31:22.039Z,101444.50
2022-07-30T02:36:39.745Z,101444.50
2022-07-30T02:41:54.691Z,101440.94
2022-07-30T02:47:09.759Z,101443.00
2022-07-30T02:52:34.943Z,101440.19
2022-07-30T02:57:50.941Z,101446.31
2022-07-30T03:03:06.689Z,101449.13
2022-07-30T03:08:22.015Z,101451.75
2022-07-30T03:13:37.752Z,101441.25
2022-07-30T03:18:52.994Z,101446.13
2022-07-30T03:24:08.702Z,101451.75
2022-07-30T03:29:23.753Z,101446.13
2022-07-30T03:34:38.809Z,101452.31
2022-07-30T03:39:55.049Z,101459.97
2022-07-30T03:45:11.700Z,101473.25
2022-07-30T03:50:26.697Z,101472.50
2022-07-30T03:55:42.730Z,101464.06
2022-07-30T04:01:34.797Z,101465.34
2022-07-30T04:06:58.924Z,101459.00
2022-07-30T04:12:14.758Z,101456.19
2022-07-30T04:17:29.766Z,101453.38
2022-07-30T04:22:47.059Z,101474.31
2022-07-30T04:28:04.129Z,101459.88
2022-07-30T04:33:19.691Z,101480.69
2022-07-30T04:39:04.077Z,101477.88
2022-07-30T04:44:20.068Z,101489.88
2022-07-30T04:49:55.709Z,101493.41
2022-07-30T04:55:12.756Z,101495.50
2022-07-30T05:00:32.396Z,101498.31
2022-07-30T05:05:49.793Z,101496.78
2022-07-30T05:11:10.702Z,101498.09
2022-07-30T05:16:26.047Z,101506.50
2022-07-30T05:21:42.727Z,101506.50
2022-07-30T05:26:57.973Z,101507.81
2022-07-30T05:32:13.456Z,101515.50
2022-07-30T05:37:29.981Z,101517.53
2022-07-30T05:42:45.700Z,101519.59
2022-07-30T05:48:00.716Z,101523.16
2022-07-30T05:53:15.699Z,101525.00
2022-07-30T05:58:56.758Z,101526.28
2022-07-30T06:04:34.739Z,101529.63
2022-07-30T06:09:49.717Z,101534.50
2022-07-30T06:15:04.778Z,101543.66
2022-07-30T06:20:21.741Z,101539.56
2022-07-30T06:26:09.028Z,101544.41
2022-07-30T06:31:25.758Z,101556.97
2022-07-30T06:36:41.700Z,101566.13
2022-07-30T06:42:02.013Z,101558.25
2022-07-30T06:47:41.060Z,101570.78
2022-07-30T06:52:56.749Z,101579.44
2022-07-30T06:58:30.770Z,101568.72
2022-07-30T07:04:03.805Z,101568.91
2022-07-30T07:09:20.762Z,101564.06
2022-07-30T07:15:10.723Z,101559.22
2022-07-30T07:20:26.738Z,101566.88
2022-07-30T07:25:46.086Z,101566.88
2022-07-30T07:31:01.869Z,101563.31
2022-07-30T07:36:18.059Z,101572.50
2022-07-30T07:41:48.760Z,101584.47
2022-07-30T07:47:06.994Z,101592.91
2022-07-30T07:52:28.730Z,101592.13
2022-07-30T07:57:45.730Z,101578.84
2022-07-30T08:03:03.045Z,101579.63
2022-07-30T08:08:19.745Z,101571.94
2022-07-30T08:13:54.742Z,101577.56
2022-07-30T08:19:28.768Z,101580.91
2022-07-30T08:24:57.787Z,101573.81
2022-07-30T08:30:12.775Z,101560.50
2022-07-30T08:35:28.061Z,101562.00
2022-07-30T08:40:43.704Z,101561.25
2022-07-30T08:46:02.809Z,101568.19
2022-07-30T08:51:30.750Z,101576.81
2022-07-30T08:56:51.766Z,101573.06
2022-07-30T09:02:12.035Z,101573.81
2022-07-30T09:07:40.033Z,101572.50
2022-07-30T09:13:01.724Z,101576.63
2022-07-30T09:18:16.727Z,101583.72
2022-07-30T09:23:31.748Z,101587.84
2022-07-30T09:29:18.998Z,101587.28
2022-07-30T09:34:54.012Z,101575.28
2022-07-30T09:40:32.109Z,101589.91
2022-07-30T09:46:08.036Z,101594.19
2022-07-30T09:51:24.709Z,101582.22
2022-07-30T09:57:01.900Z,101593.66
2022-07-30T10:02:18.077Z,101590.09
2022-07-30T10:07:53.063Z,101583.19
2022-07-30T10:13:09.058Z,101577.56
2022-07-30T10:18:28.716Z,101582.66
2022-07-30T10:24:18.765Z,101581.13
2022-07-30T10:30:04.126Z,101569.16
2022-07-30T10:35:34.261Z,101560.19
2022-07-30T10:40:53.714Z,101555.31
2022-07-30T10:46:19.875Z,101560.41
2022-07-30T10:51:37.741Z,101562.66
2022-07-30T10:56:52.724Z,101553.69
2022-07-30T11:02:08.078Z,101556.72
2022-07-30T11:07:23.803Z,101566.66
2022-07-30T11:12:38.732Z,101553.69
2022-07-30T11:17:54.731Z,101553.00
2022-07-30T11:23:10.546Z,101557.53
2022-07-30T11:28:30.059Z,101558.31
2022-07-30T11:33:46.057Z,101570.47
2022-07-30T11:39:06.767Z,101558.72
2022-07-30T11:44:22.745Z,101551.81
2022-07-30T11:49:38.022Z,101559.91
2022-07-30T11:54:54.084Z,101558.56
2022-07-30T12:00:10.089Z,101562.38
2022-07-30T12:05:26.065Z,101551.34
2022-07-30T12:10:41.787Z,101555.09
2022-07-30T12:15:56.747Z,101552.50
2022-07-30T12:21:12.088Z,101543.53
2022-07-30T12:26:27.720Z,101546.53
2022-07-30T12:31:42.856Z,101546.75
2022-07-30T12:36:57.823Z,101545.44
2022-07-30T12:42:12.743Z,101549.22
2022-07-30T12:47:27.732Z,101543.06
2022-07-30T12:52:42.818Z,101549.63
2022-07-30T12:57:57.762Z,101547.03
2022-07-30T13:03:12.745Z,101556.44
2022-07-30T13:08:27.794Z,101544.63
2022-07-30T13:13:42.781Z,101548.41
2022-07-30T13:18:57.736Z,101543.00
2022-07-30T13:24:17.864Z,101540.91
2022-07-30T13:29:33.766Z,101529.91
2022-07-30T13:34:49.058Z,101536.50
2022-07-30T13:40:04.761Z,101535.91
2022-07-30T13:45:19.780Z,101532.56
2022-07-30T13:50:34.752Z,101541.19
2022-07-30T13:55:50.043Z,101532.25
2022-07-30T14:01:05.801Z,101530.94
2022-07-30T14:06:20.759Z,101531.13
2022-07-30T14:11:35.717Z,101522.88
2022-07-30T14:16:50.745Z,101521.56
2022-07-30T14:22:08.751Z,101533.03
2022-07-30T14:27:24.034Z,101527.63
2022-07-30T14:32:39.744Z,101524.25
2022-07-30T14:37:54.725Z,101522.94
2022-07-30T14:43:09.742Z,101518.84
2022-07-30T14:48:25.158Z,101520.34
2022-07-30T14:53:41.059Z,101504.25
2022-07-30T14:58:56.772Z,101518.47
2022-07-30T15:04:11.818Z,101514.38
2022-07-30T15:09:26.730Z,101518.69
2022-07-30T15:14:42.109Z,101518.91
2022-07-30T15:19:59.746Z,101512.53
2022-07-30T15:25:14.838Z,101502.78
2022-07-30T15:30:29.752Z,101511.22
2022-07-30T15:35:44.789Z,101508.59
2022-07-30T15:41:00.066Z,101509.34
2022-07-30T15:46:15.810Z,101513.69
2022-07-30T15:51:30.777Z,101526.75
2022-07-30T15:56:45.760Z,101520.97
2022-07-30T16:02:01.230Z,101528.59
2022-07-30T16:07:16.529Z,101522.22
2022-07-30T16:12:31.851Z,101517.94
2022-07-30T16:17:47.169Z,101523.56
2022-07-30T16:23:02.734Z,101520.75
2022-07-30T16:28:18.053Z,101521.50
2022-07-30T16:33:34.082Z,101514.38
2022-07-30T16:38:49.770Z,101516.41
2022-07-30T16:44:04.782Z,101507.22
2022-07-30T16:49:19.804Z,101507.22
2022-07-30T16:54:34.816Z,101508.00
2022-07-30T16:59:50.078Z,101508.00
2022-07-30T17:05:05.981Z,101510.03
2022-07-30T17:10:22.913Z,101517.19
2022-07-30T17:15:40.851Z,101517.19
2022-07-30T17:20:56.066Z,101502.38
2022-07-30T17:26:11.770Z,101504.41
2022-07-30T17:31:26.799Z,101502.38
2022-07-30T17:36:41.770Z,101498.78
2022-07-30T17:42:03.076Z,101502.38
2022-07-30T17:47:18.773Z,101499.56
2022-07-30T17:52:34.977Z,101500.84
2022-07-30T17:57:51.040Z,101507.22
2022-07-30T18:03:07.141Z,101506.47
2022-07-30T18:08:22.834Z,101500.84
2022-07-30T18:13:37.747Z,101497.31
2022-07-30T18:18:53.055Z,101498.63
2022-07-30T18:24:09.057Z,101498.63
2022-07-30T18:29:28.818Z,101492.25
2022-07-30T18:34:43.917Z,101495.59
2022-07-30T18:39:58.753Z,101490.72
2022-07-30T18:45:15.786Z,101496.34
2022-07-30T18:50:30.834Z,101489.97
2022-07-30T18:55:45.796Z,101493.53
2022-07-30T19:01:01.100Z,101489.22
2022-07-30T19:06:16.800Z,101493.31
2022-07-30T19:11:36.834Z,101492.56
2022-07-30T19:16:53.063Z,101495.38
2022-07-30T19:22:08.839Z,101484.72
2022-07-30T19:27:23.806Z,101488.28
2022-07-30T19:32:39.140Z,101493.91
2022-07-30T19:37:55.073Z,101493.31
2022-07-30T19:43:57.677Z,101502.50
2022-07-30T19:49:14.101Z,101500.47
2022-07-30T19:54:30.085Z,101501.22
2022-07-30T19:59:59.566Z,101507.06
2022-07-30T20:05:24.846Z,101497.88
2022-07-30T20:10:40.738Z,101501.44
2022-07-30T20:15:55.833Z,101493.75
2022-07-30T20:21:15.438Z,101492.25
2022-07-30T20:26:30.795Z,101487.38
2022-07-30T20:31:45.807Z,101478.94
2022-07-30T20:37:04.329Z,101478.94
2022-07-30T20:42:31.756Z,101491.47
2022-07-30T20:47:47.043Z,101495.59
2022-07-30T20:53:03.148Z,101489.97
2022-07-30T20:58:18.832Z,101494.84
2022-07-30T21:03:34.132Z,101493.53
2022-07-30T21:08:52.067Z,101485.88
2022-07-30T21:14:08.716Z,101488.66
2022-07-30T21:19:23.779Z,101487.91
2022-07-30T21:24:38.810Z,101487.16
2022-07-30T21:29:54.075Z,101486.41
2022-07-30T21:35:11.712Z,101478.72
2022-07-30T21:40:26.776Z,101466.19
2022-07-30T21:45:42.115Z,101471.06
2022-07-30T21:50:57.839Z,101468.25
2022-07-30T21:56:13.806Z,101466.19
2022-07-30T22:01:32.920Z,101465.44
2022-07-30T22:06:48.776Z,101462.63
2022-07-30T22:12:09.792Z,101469.53
2022-07-30T22:17:37.197Z,101469.53
2022-07-30T22:23:03.106Z,101461.88
2022-07-30T22:28:20.061Z,101461.09
2022-07-30T22:33:35.771Z,101463.91
2022-07-30T22:38:58.489Z,101458.28
2022-07-30T22:44:14.793Z,101451.91
2022-07-30T22:49:45.971Z,101452.69
2022-07-30T22:55:09.082Z,101455.50
2022-07-30T23:00:27.895Z,101454.72
2022-07-30T23:05:56.798Z,101448.34
2022-07-30T23:11:12.826Z,101443.50
2022-07-30T23:16:28.097Z,101441.44
2022-07-30T23:21:48.856Z,101435.81
2022-07-30T23:27:04.221Z,101439.38
2022-07-30T23:32:19.540Z,101424.56
2022-07-30T23:37:37.888Z,101424.56
2022-07-30T23:43:03.776Z,101427.38
2022-07-30T23:48:19.099Z,101428.69
2022-07-30T23:53:34.855Z,101426.63
2022-07-30T23:58:49.785Z,101421.75
